Time;durP1;ratioP1;P1;durP2;ratioP2;P2;SDS_P1;SDS_P2;PMS_P1;PMS_P2;Temp;Humidity;BMP_temperature;BMP_pressure;BME280_temperature;BME280_humidity;BME280_pressure;Samples;Min_cycle;Max_cycle;Signal;HPM_P1;HPM_P2
2022/08/25 00:01:23;;;;;;;8.80;3.57;;;21.30;97.70;;;;;;5011680;28;20451;-78
2022/08/25 00:03:51;;;;;;;3.40;3.00;;;21.20;97.90;;;;;;5011581;28;20963;-78
2022/08/25 00:06:19;;;;;;;6.80;3.50;;;21.20;98.20;;;;;;5011890;28;20453;-78
2022/08/25 00:08:46;;;;;;;5.60;3.40;;;21.20;98.30;;;;;;5011776;28;20935;-77
2022/08/25 00:11:14;;;;;;;5.93;3.60;;;21.20;98.50;;;;;;5011718;28;20483;-77
2022/08/25 00:13:45;;;;;;;8.47;3.60;;;21.20;98.70;;;;;;5011602;28;20490;-77
2022/08/25 00:16:12;;;;;;;3.60;3.27;;;21.20;98.80;;;;;;5011270;28;20454;-77
2022/08/25 00:18:40;;;;;;;10.73;3.70;;;21.20;99.10;;;;;;5011724;28;20459;-78
2022/08/25 00:21:08;;;;;;;5.43;3.60;;;21.00;99.20;;;;;;5011699;28;20505;-77
2022/08/25 00:23:34;;;;;;;5.40;3.67;;;21.20;99.50;;;;;;5011657;28;20961;-77
2022/08/25 00:26:02;;;;;;;5.60;3.63;;;21.10;99.70;;;;;;5011318;28;20798;-77
2022/08/25 00:28:30;;;;;;;6.20;3.80;;;21.00;99.80;;;;;;5011712;28;20496;-77
2022/08/25 00:31:00;;;;;;;5.50;3.73;;;21.00;99.90;;;;;;5011505;28;20457;-77
2022/08/25 00:33:27;;;;;;;9.73;3.40;;;21.00;99.90;;;;;;5011420;28;21074;-77
2022/08/25 00:35:55;;;;;;;6.20;3.53;;;20.90;99.90;;;;;;5011303;28;20450;-78
2022/08/25 00:38:21;;;;;;;4.10;3.70;;;20.90;99.90;;;;;;5011470;28;20513;-78
2022/08/25 00:41:04;;;;;;;8.83;3.70;;;20.80;99.90;;;;;;5011766;28;20458;-77
2022/08/25 00:43:44;;;;;;;6.63;4.17;;;20.80;99.90;;;;;;5011325;28;20478;-78
2022/08/25 00:46:14;;;;;;;11.57;4.80;;;20.70;99.90;;;;;;5014880;28;21005;-77
2022/08/25 00:48:43;;;;;;;8.63;3.83;;;20.60;99.90;;;;;;5015011;28;20880;-78
2022/08/25 00:51:13;;;;;;;7.70;3.83;;;20.60;99.90;;;;;;5014750;28;20977;-77
2022/08/25 00:53:41;;;;;;;6.03;3.90;;;20.60;99.90;;;;;;5014665;28;20458;-77
2022/08/25 00:56:08;;;;;;;4.83;4.10;;;20.60;99.90;;;;;;5014752;28;20690;-77
2022/08/25 00:58:36;;;;;;;9.00;4.17;;;20.60;99.90;;;;;;5014839;28;20883;-77
2022/08/25 01:01:03;;;;;;;4.57;4.13;;;20.60;99.90;;;;;;5014744;28;20451;-77
2022/08/25 01:03:32;;;;;;;8.37;4.13;;;20.50;99.90;;;;;;5014624;28;20474;-77
2022/08/25 01:06:00;;;;;;;7.00;4.07;;;20.50;99.90;;;;;;5014600;28;20451;-77
2022/08/25 01:08:28;;;;;;;4.47;3.90;;;20.50;99.90;;;;;;5014342;28;20451;-77
2022/08/25 01:10:58;;;;;;;5.37;4.10;;;20.50;99.90;;;;;;5014717;28;20450;-77
2022/08/25 01:13:35;;;;;;;5.10;4.47;;;20.40;99.90;;;;;;5014743;28;20459;-77
2022/08/25 01:16:02;;;;;;;6.07;3.80;;;20.40;99.90;;;;;;5014520;28;20455;-78
2022/08/25 01:18:41;;;;;;;11.53;4.10;;;20.30;99.90;;;;;;5014411;28;20451;-77
2022/08/25 01:21:09;;;;;;;5.60;4.20;;;20.30;99.90;;;;;;5014421;28;20862;-78
2022/08/25 01:23:36;;;;;;;4.73;4.30;;;20.30;99.90;;;;;;5014451;28;20475;-77
2022/08/25 01:26:08;;;;;;;4.83;4.13;;;20.20;99.90;;;;;;5014449;28;20583;-77
2022/08/25 01:28:36;;;;;;;6.07;4.17;;;20.20;99.90;;;;;;5014159;28;20455;-78
2022/08/25 01:31:04;;;;;;;6.00;4.40;;;20.10;99.90;;;;;;5014153;28;20453;-78
2022/08/25 01:33:31;;;;;;;6.73;4.70;;;20.10;99.90;;;;;;5014292;28;20544;-78
2022/08/25 01:35:58;;;;;;;5.90;4.72;;;20.00;99.90;;;;;;5014133;28;20421;-78
2022/08/25 01:38:26;;;;;;;5.00;4.50;;;20.00;99.90;;;;;;5014212;28;20204;-78
2022/08/25 01:40:52;;;;;;;6.03;4.40;;;20.00;99.90;;;;;;5014477;28;20455;-77
2022/08/25 01:43:26;;;;;;;6.07;4.00;;;20.00;99.90;;;;;;5013882;28;20466;-77
2022/08/25 01:45:53;;;;;;;6.60;4.50;;;19.90;99.90;;;;;;5013544;28;20537;-78
2022/08/25 01:48:19;;;;;;;5.73;4.50;;;19.90;99.90;;;;;;5013929;28;20461;-78
2022/08/25 01:50:46;;;;;;;7.13;5.03;;;19.90;99.90;;;;;;5013743;28;20874;-77
2022/08/25 01:53:18;;;;;;;7.70;5.03;;;19.80;99.90;;;;;;5013556;28;20487;-77
2022/08/25 01:55:54;;;;;;;5.93;4.27;;;19.80;99.90;;;;;;5012483;28;20458;-77
2022/08/25 01:58:23;;;;;;;8.50;4.73;;;19.80;99.90;;;;;;5013406;28;20469;-77
2022/08/25 02:00:53;;;;;;;11.93;4.57;;;19.70;99.90;;;;;;5013690;28;20506;-77
2022/08/25 02:03:20;;;;;;;7.53;4.37;;;19.70;99.90;;;;;;5013345;28;20986;-78
2022/08/25 02:05:48;;;;;;;5.83;4.20;;;19.60;99.90;;;;;;5013439;28;20433;-77
2022/08/25 02:08:16;;;;;;;9.77;4.47;;;19.60;99.90;;;;;;5013530;28;20994;-77
2022/08/25 02:10:44;;;;;;;6.63;4.33;;;19.60;99.90;;;;;;5013260;28;20469;-77
2022/08/25 02:13:13;;;;;;;6.93;4.37;;;19.60;99.90;;;;;;5013643;28;20518;-77
2022/08/25 02:15:42;;;;;;;6.30;4.20;;;19.50;99.90;;;;;;5013231;28;20422;-77
2022/08/25 02:18:09;;;;;;;6.28;4.43;;;19.40;99.90;;;;;;5013513;28;20421;-78
2022/08/25 02:20:36;;;;;;;8.53;4.80;;;19.40;99.90;;;;;;5013401;28;20257;-77
2022/08/25 02:23:03;;;;;;;4.77;3.77;;;19.40;99.90;;;;;;5013377;28;20522;-78
2022/08/25 02:25:31;;;;;;;7.17;4.30;;;19.40;99.90;;;;;;5013406;28;20512;-77
2022/08/25 02:27:58;;;;;;;5.37;4.83;;;19.40;99.90;;;;;;5014110;28;20429;-77
2022/08/25 02:30:26;;;;;;;7.40;4.50;;;19.40;99.90;;;;;;5014169;28;20536;-77
2022/08/25 02:32:53;;;;;;;5.33;4.20;;;19.40;99.90;;;;;;5013715;28;20242;-77
2022/08/25 02:35:20;;;;;;;10.87;4.70;;;19.40;99.90;;;;;;5013625;28;20454;-77
2022/08/25 02:37:47;;;;;;;14.95;4.50;;;19.40;99.90;;;;;;5013268;28;20458;-77
2022/08/25 02:40:13;;;;;;;5.83;4.00;;;19.40;99.90;;;;;;5013259;28;20630;-77
2022/08/25 02:42:40;;;;;;;6.30;4.20;;;19.30;99.90;;;;;;5013276;28;20590;-77
2022/08/25 02:45:07;;;;;;;7.03;5.07;;;19.30;99.90;;;;;;5012909;28;20451;-77
2022/08/25 02:47:36;;;;;;;14.77;4.80;;;19.30;99.90;;;;;;5012754;28;20930;-77
2022/08/25 02:50:03;;;;;;;8.17;4.70;;;19.30;99.90;;;;;;5012670;28;20464;-77
2022/08/25 02:52:30;;;;;;;5.25;4.70;;;19.30;99.90;;;;;;5012948;28;20539;-77
2022/08/25 02:54:57;;;;;;;9.38;4.75;;;19.20;99.90;;;;;;5012586;28;20204;-78
2022/08/25 02:57:23;;;;;;;6.72;4.22;;;19.20;99.90;;;;;;5013108;28;20250;-77
2022/08/25 02:59:50;;;;;;;7.77;4.90;;;19.20;99.90;;;;;;5012481;28;20246;-77
2022/08/25 03:02:17;;;;;;;5.27;4.60;;;19.20;99.90;;;;;;5012382;28;20879;-77
2022/08/25 03:04:46;;;;;;;7.27;4.70;;;19.10;99.90;;;;;;5012323;28;20488;-77
2022/08/25 03:07:12;;;;;;;6.57;4.60;;;19.10;99.90;;;;;;5011949;28;20537;-78
2022/08/25 03:09:39;;;;;;;5.77;5.00;;;19.10;99.90;;;;;;5012296;28;20991;-77
2022/08/25 03:12:07;;;;;;;6.43;4.90;;;19.10;99.90;;;;;;5012371;28;20495;-77
2022/08/25 03:14:34;;;;;;;8.27;4.87;;;19.10;99.90;;;;;;5012339;28;20480;-77
2022/08/25 03:17:01;;;;;;;5.63;4.77;;;19.10;99.90;;;;;;5012017;28;20433;-78
2022/08/25 03:19:27;;;;;;;5.50;4.70;;;19.00;99.90;;;;;;5012330;28;20479;-77
2022/08/25 03:21:56;;;;;;;5.37;4.87;;;19.00;99.90;;;;;;5012100;28;20965;-77
2022/08/25 03:24:23;;;;;;;12.47;4.80;;;19.00;99.90;;;;;;5012651;28;20513;-77
2022/08/25 03:26:55;;;;;;;8.00;4.87;;;18.90;99.90;;;;;;5012227;28;20487;-77
2022/08/25 03:29:23;;;;;;;5.70;4.70;;;18.90;99.90;;;;;;5012482;28;20449;-77
2022/08/25 03:31:50;;;;;;;8.60;4.97;;;19.00;99.90;;;;;;5012250;28;20441;-77
2022/08/25 03:34:19;;;;;;;7.90;5.30;;;18.90;99.90;;;;;;5012209;28;20433;-77
2022/08/25 03:36:48;;;;;;;5.45;4.82;;;18.90;99.90;;;;;;5012352;28;20435;-77
2022/08/25 03:39:17;;;;;;;9.40;5.00;;;18.80;99.90;;;;;;5012428;28;20254;-77
2022/08/25 03:41:44;;;;;;;5.67;5.07;;;18.80;99.90;;;;;;5012264;28;20474;-78
2022/08/25 03:44:11;;;;;;;7.20;6.00;;;18.80;99.90;;;;;;5012366;28;20446;-77
2022/08/25 03:46:39;;;;;;;7.88;5.45;;;18.80;99.90;;;;;;5011705;28;20293;-77
2022/08/25 03:49:08;;;;;;;5.88;4.93;;;18.80;99.90;;;;;;5012546;28;20635;-78
2022/08/25 03:51:37;;;;;;;5.70;5.10;;;18.80;99.90;;;;;;5012063;28;20240;-77
2022/08/25 03:54:06;;;;;;;7.67;5.10;;;18.80;99.90;;;;;;5012286;28;20488;-77
2022/08/25 03:56:34;;;;;;;9.27;4.87;;;18.80;99.90;;;;;;5011679;28;20464;-77
2022/08/25 03:59:01;;;;;;;10.27;5.60;;;18.70;99.90;;;;;;5011928;28;20958;-77
2022/08/25 04:01:28;;;;;;;8.80;5.20;;;18.70;99.90;;;;;;5011673;28;20452;-77
2022/08/25 04:03:55;;;;;;;9.23;5.57;;;18.70;99.90;;;;;;5012191;28;20447;-77
2022/08/25 04:06:22;;;;;;;12.23;5.77;;;18.70;99.90;;;;;;5012815;28;20425;-77
2022/08/25 04:08:51;;;;;;;8.37;5.90;;;18.70;99.90;;;;;;5011690;28;20413;-77
2022/08/25 04:11:20;;;;;;;9.00;5.80;;;18.70;99.90;;;;;;5011627;28;20490;-77
2022/08/25 04:13:50;;;;;;;10.77;5.27;;;18.70;99.90;;;;;;5012034;28;20560;-77
2022/08/25 04:16:19;;;;;;;10.30;5.53;;;18.60;99.90;;;;;;5011694;28;20568;-77
2022/08/25 04:18:48;;;;;;;10.13;6.30;;;18.60;99.90;;;;;;5012178;28;20508;-77
2022/08/25 04:21:16;;;;;;;7.53;5.20;;;18.60;99.90;;;;;;5015438;28;20436;-78
2022/08/25 04:23:44;;;;;;;5.73;5.13;;;18.60;99.90;;;;;;5015640;28;20208;-78
2022/08/25 04:26:12;;;;;;;7.70;5.40;;;18.60;99.90;;;;;;5014993;28;20457;-78
2022/08/25 04:28:39;;;;;;;8.00;5.50;;;18.60;99.90;;;;;;5015963;28;20204;-77
2022/08/25 04:31:08;;;;;;;8.10;5.50;;;18.50;99.90;;;;;;5015247;28;20455;-77
2022/08/25 04:33:35;;;;;;;5.50;4.90;;;18.50;99.90;;;;;;5015251;28;20856;-77
2022/08/25 04:36:03;;;;;;;5.82;5.32;;;18.50;99.90;;;;;;5014993;28;20842;-77
2022/08/25 04:38:29;;;;;;;8.70;5.60;;;18.50;99.90;;;;;;5015233;28;20443;-77
2022/08/25 04:40:57;;;;;;;9.82;5.80;;;18.40;99.90;;;;;;5014809;28;20265;-77
2022/08/25 04:43:23;;;;;;;8.83;5.57;;;18.40;99.90;;;;;;5014905;28;20231;-77
2022/08/25 04:45:50;;;;;;;12.90;5.60;;;18.40;99.90;;;;;;5014689;28;20529;-77
2022/08/25 04:48:19;;;;;;;12.90;5.60;;;18.40;99.90;;;;;;5015195;28;20440;-78
2022/08/25 04:50:46;;;;;;;7.50;5.50;;;18.40;99.90;;;;;;5014799;28;20898;-77
2022/08/25 04:53:13;;;;;;;8.55;5.53;;;18.40;99.90;;;;;;5014687;28;20490;-77
2022/08/25 04:55:41;;;;;;;8.83;5.70;;;18.50;99.90;;;;;;5014765;28;20266;-77
2022/08/25 04:58:07;;;;;;;9.83;6.13;;;18.50;99.90;;;;;;5014933;28;20481;-77
2022/08/25 05:00:34;;;;;;;12.87;5.80;;;18.50;99.90;;;;;;5014737;28;20467;-77
2022/08/25 05:03:01;;;;;;;10.32;6.68;;;18.50;99.90;;;;;;5014682;28;20572;-77
2022/08/25 05:05:29;;;;;;;11.10;6.60;;;18.50;99.90;;;;;;5014922;28;20212;-77
2022/08/25 05:07:56;;;;;;;10.17;6.77;;;18.50;99.90;;;;;;5014456;28;20428;-77
2022/08/25 05:10:23;;;;;;;13.60;7.37;;;18.50;99.90;;;;;;5014712;28;20432;-78
2022/08/25 05:12:49;;;;;;;11.97;7.27;;;18.50;99.90;;;;;;5014735;28;20556;-78
2022/08/25 05:18:08;;;;;;;15.20;7.57;;;18.60;99.90;;;;;;4989846;28;20437;-77
2022/08/25 05:20:37;;;;;;;17.53;7.87;;;18.70;99.90;;;;;;5014441;28;20461;-78
2022/08/25 05:23:04;;;;;;;13.43;7.10;;;18.70;99.90;;;;;;5014558;28;20449;-77
2022/08/25 05:25:32;;;;;;;10.17;6.40;;;18.80;99.90;;;;;;5014148;28;20429;-78
2022/08/25 05:27:59;;;;;;;14.83;6.63;;;19.00;99.90;;;;;;5014463;28;20424;-78
2022/08/25 05:30:25;;;;;;;11.50;6.30;;;19.20;99.90;;;;;;5013957;28;20429;-78
2022/08/25 05:32:52;;;;;;;8.90;6.00;;;19.50;99.90;;;;;;5013618;28;20976;-78
2022/08/25 05:35:19;;;;;;;7.93;5.40;;;19.90;99.90;;;;;;5014083;28;20505;-78
2022/08/25 05:37:47;;;;;;;22.40;5.90;;;20.20;99.90;;;;;;5014067;28;20483;-78
2022/08/25 05:40:14;;;;;;;8.40;6.33;;;20.40;99.90;;;;;;5014133;28;20490;-78
2022/08/25 05:42:40;;;;;;;7.77;6.00;;;20.70;99.90;;;;;;5013620;28;20504;-78
2022/08/25 05:45:09;;;;;;;14.87;6.67;;;20.90;99.90;;;;;;5013618;28;20455;-78
2022/08/25 05:47:35;;;;;;;9.20;5.20;;;21.20;99.90;;;;;;5013694;28;20537;-78
2022/08/25 05:50:02;;;;;;;10.57;5.37;;;21.50;99.90;;;;;;5013854;28;20529;-78
2022/08/25 05:52:29;;;;;;;10.10;5.00;;;21.70;99.90;;;;;;5013477;28;20467;-78
2022/08/25 05:54:57;;;;;;;10.70;5.50;;;21.90;99.90;;;;;;5013508;28;20454;-78
2022/08/25 05:57:23;;;;;;;7.10;5.40;;;22.10;99.90;;;;;;5013604;28;20451;-78
2022/08/25 05:59:50;;;;;;;16.20;5.60;;;22.20;99.90;;;;;;5014009;28;20492;-78
2022/08/25 06:05:01;;;;;;;8.40;5.30;;;22.70;99.90;;;;;;5013645;28;20215;-78
2022/08/25 06:07:28;;;;;;;9.07;5.87;;;22.90;99.90;;;;;;5013669;28;20455;-79
2022/08/25 06:09:56;;;;;;;10.73;5.10;;;23.20;99.90;;;;;;5014128;28;20541;-78
2022/08/25 06:12:23;;;;;;;11.37;5.23;;;23.40;99.90;;;;;;5013406;28;20478;-79
2022/08/25 06:14:50;;;;;;;10.73;6.28;;;23.60;99.90;;;;;;5013350;28;20831;-79
2022/08/25 06:17:16;;;;;;;9.33;5.37;;;23.70;99.90;;;;;;5013675;28;20242;-79
2022/08/25 06:19:43;;;;;;;8.03;5.20;;;24.00;99.90;;;;;;5013600;28;20469;-79
2022/08/25 06:22:10;;;;;;;9.87;5.60;;;24.20;99.90;;;;;;5013404;28;20545;-78
2022/08/25 06:24:36;;;;;;;9.10;6.00;;;24.50;99.90;;;;;;5013424;28;20857;-79
2022/08/25 06:27:05;;;;;;;10.20;5.32;;;24.70;99.90;;;;;;5012972;28;20446;-78
2022/08/25 06:29:31;;;;;;;8.70;5.37;;;24.90;99.90;;;;;;5013758;28;20230;-78
2022/08/25 06:31:58;;;;;;;9.70;6.40;;;25.10;99.90;;;;;;5013362;28;20471;-78
2022/08/25 06:34:25;;;;;;;16.13;6.07;;;25.20;99.90;;;;;;5013356;28;20486;-79
2022/08/25 06:36:52;;;;;;;12.10;6.07;;;25.50;99.90;;;;;;5013054;28;21018;-78
2022/08/25 06:39:18;;;;;;;9.03;5.80;;;25.60;99.90;;;;;;5013567;28;20443;-79
2022/08/25 06:41:45;;;;;;;11.57;6.47;;;25.70;99.90;;;;;;5012258;28;20478;-78
2022/08/25 06:44:13;;;;;;;10.83;6.00;;;25.80;99.90;;;;;;5013502;28;20459;-79
2022/08/25 06:46:40;;;;;;;14.25;6.72;;;25.90;99.90;;;;;;5013000;28;20496;-78
2022/08/25 06:49:07;;;;;;;11.33;6.27;;;25.90;99.90;;;;;;5012952;28;20750;-79
2022/08/25 06:51:35;;;;;;;8.38;6.18;;;26.10;99.90;;;;;;5012757;28;20524;-79
2022/08/25 06:54:02;;;;;;;12.95;6.30;;;26.20;99.90;;;;;;5012812;28;20714;-79
2022/08/25 06:56:29;;;;;;;14.20;6.43;;;26.20;99.90;;;;;;5012730;28;20203;-79
2022/08/25 06:58:55;;;;;;;12.83;7.20;;;26.20;99.90;;;;;;5012869;28;20450;-79
2022/08/25 07:01:26;;;;;;;10.97;6.60;;;26.20;99.90;;;;;;5012770;28;20450;-78
2022/08/25 07:03:56;;;;;;;8.85;5.90;;;26.30;99.90;;;;;;5012828;28;20529;-79
2022/08/25 07:06:23;;;;;;;6.60;5.50;;;26.30;99.90;;;;;;5012961;28;20200;-79
2022/08/25 07:08:50;;;;;;;14.87;6.07;;;26.40;99.90;;;;;;5012726;28;20486;-76
2022/08/25 07:11:17;;;;;;;13.33;7.60;;;26.60;99.90;;;;;;5012401;28;20450;-77
2022/08/25 07:13:44;;;;;;;10.27;6.97;;;26.80;99.90;;;;;;5012314;28;20493;-76
2022/08/25 07:16:11;;;;;;;7.93;6.53;;;27.00;99.90;;;;;;5012220;28;20446;-77
2022/08/25 07:18:39;;;;;;;11.63;7.60;;;27.20;99.90;;;;;;5012214;28;20454;-76
2022/08/25 07:21:06;;;;;;;10.97;7.33;;;27.30;99.90;;;;;;5012402;28;20447;-78
2022/08/25 07:23:33;;;;;;;10.97;8.07;;;27.30;99.90;;;;;;5012508;28;20470;-77
2022/08/25 07:26:08;;;;;;;9.70;6.80;;;27.40;99.90;;;;;;5012533;28;20521;-78
2022/08/25 07:28:34;;;;;;;9.10;8.07;;;27.30;99.90;;;;;;5012356;28;20512;-77
2022/08/25 07:31:01;;;;;;;10.63;7.70;;;27.40;99.90;;;;;;5012298;28;20497;-77
2022/08/25 07:33:28;;;;;;;11.90;8.27;;;27.50;99.90;;;;;;5012037;28;20491;-77
2022/08/25 07:35:56;;;;;;;12.73;7.78;;;27.70;99.90;;;;;;5012167;28;20454;-77
2022/08/25 07:38:23;;;;;;;11.53;7.40;;;27.90;99.90;;;;;;5012265;28;20207;-77
2022/08/25 07:40:53;;;;;;;9.48;8.48;;;28.00;99.90;;;;;;5012448;28;20509;-77
2022/08/25 07:43:21;;;;;;;13.17;8.53;;;28.00;99.90;;;;;;5012012;28;20720;-78
2022/08/25 07:45:48;;;;;;;11.63;8.33;;;28.00;99.90;;;;;;5012085;28;20509;-78
2022/08/25 07:48:15;;;;;;;14.50;8.10;;;28.10;99.90;;;;;;5011802;28;20500;-77
2022/08/25 07:50:44;;;;;;;12.73;8.90;;;28.10;99.90;;;;;;5011948;28;20474;-78
2022/08/25 07:53:14;;;;;;;10.73;8.63;;;28.40;99.90;;;;;;5012512;28;20475;-77
2022/08/25 07:55:42;;;;;;;13.50;8.60;;;28.50;99.90;;;;;;5015714;28;20655;-77
2022/08/25 07:58:10;;;;;;;11.30;9.57;;;28.50;99.90;;;;;;5015959;28;20451;-77
2022/08/25 08:00:38;;;;;;;13.87;9.57;;;28.70;99.90;;;;;;5016033;28;20458;-78
2022/08/25 08:03:06;;;;;;;17.80;9.60;;;28.80;99.90;;;;;;5015697;28;20486;-78
2022/08/25 08:05:35;;;;;;;10.40;8.67;;;28.90;99.90;;;;;;5015820;28;20455;-78
2022/08/25 08:08:02;;;;;;;10.07;8.70;;;28.70;99.90;;;;;;5016133;28;20905;-78
2022/08/25 08:10:30;;;;;;;15.67;9.10;;;28.50;99.90;;;;;;5015947;28;20540;-78
2022/08/25 08:12:57;;;;;;;8.90;7.97;;;28.60;99.90;;;;;;5015645;28;20537;-78
2022/08/25 08:15:24;;;;;;;9.30;7.93;;;28.60;99.90;;;;;;5015285;28;20482;-78
2022/08/25 08:17:50;;;;;;;9.83;7.90;;;28.90;99.90;;;;;;5015851;28;20465;-77
2022/08/25 08:20:17;;;;;;;13.23;8.90;;;29.00;99.90;;;;;;5015528;28;21019;-78
2022/08/25 08:22:44;;;;;;;17.83;8.40;;;29.20;99.90;;;;;;5015775;28;20919;-78
2022/08/25 08:25:12;;;;;;;11.30;8.20;;;29.30;99.90;;;;;;5015400;28;20465;-78
2022/08/25 08:27:41;;;;;;;13.73;8.30;;;29.60;99.90;;;;;;5015418;28;20505;-77
2022/08/25 08:30:09;;;;;;;14.53;7.80;;;29.60;99.90;;;;;;5015306;28;20945;-78
2022/08/25 08:32:36;;;;;;;12.03;7.93;;;29.70;99.90;;;;;;5015105;28;20466;-78
2022/08/25 08:35:04;;;;;;;15.07;8.00;;;29.90;99.90;;;;;;5015122;28;20951;-78
2022/08/25 08:37:31;;;;;;;15.53;8.00;;;29.90;99.90;;;;;;5015299;28;20947;-78
2022/08/25 08:40:00;;;;;;;15.03;8.07;;;30.30;99.90;;;;;;5014994;28;21006;-78
2022/08/25 08:42:46;;;;;;;8.13;7.40;;;30.50;99.90;;;;;;5014960;28;20889;-78
2022/08/25 08:45:28;;;;;;;10.00;8.20;;;30.50;99.90;;;;;;5015011;28;20526;-78
2022/08/25 08:48:11;;;;;;;9.63;7.30;;;30.60;99.90;;;;;;5014921;28;20963;-78
2022/08/25 08:50:42;;;;;;;10.23;8.10;;;30.90;99.90;;;;;;5014793;28;20852;-78
2022/08/25 08:53:12;;;;;;;18.43;8.27;;;30.70;99.90;;;;;;5015037;28;20240;-78
2022/08/25 08:55:41;;;;;;;12.87;8.63;;;30.70;99.90;;;;;;5014724;28;20499;-78
2022/08/25 08:58:18;;;;;;;10.82;8.77;;;30.30;99.90;;;;;;5014850;28;20519;-78
2022/08/25 09:00:49;;;;;;;12.63;8.57;;;30.10;99.90;;;;;;5014818;28;20266;-78
2022/08/25 09:03:27;;;;;;;15.93;8.33;;;30.30;99.90;;;;;;5014356;28;21025;-78
2022/08/25 09:05:58;;;;;;;15.02;8.00;;;30.40;99.90;;;;;;5013949;28;20446;-78
2022/08/25 09:08:25;;;;;;;10.70;7.00;;;30.70;99.90;;;;;;5014500;28;20680;-78
2022/08/25 09:11:07;;;;;;;14.03;8.63;;;31.10;99.90;;;;;;5014535;28;20858;-79
2022/08/25 09:13:49;;;;;;;9.83;7.00;;;31.50;99.90;;;;;;5014263;28;20990;-78
2022/08/25 09:19:18;;;;;;;9.23;7.33;;;31.90;99.90;;;;;;5014365;28;20426;-78
2022/08/25 09:21:53;;;;;;;12.03;8.00;;;31.40;99.90;;;;;;5014233;28;20481;-78
2022/08/25 09:24:33;;;;;;;9.47;8.27;;;31.20;99.90;;;;;;5014219;28;20457;-78
2022/08/25 09:27:10;;;;;;;13.70;8.60;;;31.10;99.90;;;;;;5014224;28;20450;-78
2022/08/25 09:29:51;;;;;;;12.10;7.75;;;31.10;99.90;;;;;;5014103;28;20450;-78
2022/08/25 09:32:18;;;;;;;15.87;8.43;;;31.30;99.90;;;;;;5014153;28;20340;-78
2022/08/25 09:34:47;;;;;;;11.13;8.60;;;31.40;99.90;;;;;;5013726;28;21006;-78
2022/08/25 09:37:14;;;;;;;12.90;7.73;;;31.40;99.70;;;;;;5014246;28;20458;-79
2022/08/25 09:39:41;;;;;;;9.82;8.18;;;31.40;99.90;;;;;;5014367;28;20458;-80
2022/08/25 09:42:08;;;;;;;12.90;7.80;;;31.50;99.60;;;;;;5014541;28;20298;-79
2022/08/25 09:44:43;;;;;;;11.15;7.88;;;31.80;99.80;;;;;;5014045;28;20932;-80
2022/08/25 09:47:20;;;;;;;11.65;8.70;;;32.00;99.90;;;;;;5014682;28;20723;-80
2022/08/25 09:49:49;;;;;;;10.97;8.30;;;32.30;99.40;;;;;;5014543;28;20216;-80
2022/08/25 09:52:35;;;;;;;11.13;8.37;;;32.10;98.60;;;;;;5014492;28;20486;-79
2022/08/25 09:55:26;;;;;;;13.90;8.40;;;31.50;99.70;;;;;;5013626;28;21026;-80
2022/08/25 09:57:55;;;;;;;11.50;9.20;;;31.60;99.90;;;;;;5014467;28;20458;-79
2022/08/25 10:00:26;;;;;;;8.23;7.53;;;31.70;99.20;;;;;;5014113;28;20454;-80
2022/08/25 10:03:14;;;;;;;9.90;7.87;;;31.50;98.90;;;;;;5014219;28;20558;-80
2022/08/25 10:06:00;;;;;;;10.07;7.60;;;31.70;99.10;;;;;;5013744;28;20447;-80
2022/08/25 10:08:32;;;;;;;9.50;8.20;;;32.10;99.50;;;;;;5013870;28;20922;-80
2022/08/25 10:11:01;;;;;;;10.43;8.53;;;32.10;98.40;;;;;;5013843;28;20509;-80
2022/08/25 10:13:38;;;;;;;8.73;7.73;;;31.50;98.90;;;;;;5014285;28;20466;-80
2022/08/25 10:16:14;;;;;;;9.97;7.90;;;31.00;99.20;;;;;;5013247;28;20629;-81
2022/08/25 10:18:41;;;;;;;9.30;8.00;;;30.50;99.50;;;;;;5013845;28;20462;-80
2022/08/25 10:21:11;;;;;;;9.00;8.07;;;30.20;99.90;;;;;;5013682;28;20210;-80
2022/08/25 10:23:43;;;;;;;13.40;9.37;;;30.00;99.90;;;;;;5013617;28;20431;-80
2022/08/25 10:26:16;;;;;;;13.20;8.77;;;30.00;99.90;;;;;;5013350;28;20461;-80
2022/08/25 10:28:53;;;;;;;13.83;8.30;;;30.00;99.90;;;;;;5013116;28;20955;-80
2022/08/25 10:31:24;;;;;;;9.97;6.90;;;30.30;99.90;;;;;;5013195;28;20849;-80
2022/08/25 10:34:02;;;;;;;12.37;7.90;;;30.70;99.60;;;;;;5013750;28;20450;-79
2022/08/25 10:36:37;;;;;;;17.27;7.43;;;31.20;98.60;;;;;;5012789;28;20450;-80
2022/08/25 10:39:04;;;;;;;12.88;7.10;;;30.90;98.30;;;;;;5013082;28;20996;-79
2022/08/25 10:41:44;;;;;;;8.07;6.70;;;30.70;98.20;;;;;;5013105;28;20228;-80
2022/08/25 10:47:38;;;;;;;10.57;7.23;;;30.50;98.60;;;;;;5012851;28;20427;-79
2022/08/25 10:50:12;;;;;;;8.63;7.10;;;30.10;98.50;;;;;;5012435;28;20862;-79
2022/08/25 10:53:00;;;;;;;7.17;6.47;;;30.00;98.70;;;;;;5012852;28;20470;-78
2022/08/25 10:55:38;;;;;;;9.30;6.90;;;30.10;98.30;;;;;;5012393;28;20512;-79
2022/08/25 10:58:16;;;;;;;7.30;6.43;;;30.40;97.80;;;;;;5012581;28;20479;-79
2022/08/25 11:00:51;;;;;;;7.10;6.40;;;30.70;97.90;;;;;;5012902;28;20446;-78
2022/08/25 11:03:44;;;;;;;8.13;6.60;;;31.20;97.70;;;;;;5013590;28;20865;-79
2022/08/25 11:06:17;;;;;;;8.60;6.93;;;31.10;96.80;;;;;;5013667;28;20458;-79
2022/08/25 11:08:48;;;;;;;7.70;6.90;;;31.10;97.10;;;;;;5013395;28;20476;-79
2022/08/25 11:11:24;;;;;;;10.88;7.10;;;30.90;97.40;;;;;;5012140;28;20454;-79
2022/08/25 11:13:55;;;;;;;6.57;5.97;;;31.00;97.40;;;;;;5011783;28;20674;-79
2022/08/25 11:16:33;;;;;;;10.30;6.50;;;31.20;97.50;;;;;;5011311;28;20577;-79
2022/08/25 11:19:08;;;;;;;6.97;6.30;;;31.60;97.30;;;;;;5012907;28;20508;-79
2022/08/25 11:21:44;;;;;;;11.53;7.23;;;31.80;96.90;;;;;;5012962;28;20473;-80
2022/08/25 11:24:26;;;;;;;9.00;6.73;;;31.80;96.70;;;;;;5013545;28;20529;-79
2022/08/25 11:26:56;;;;;;;8.80;7.07;;;31.90;96.50;;;;;;5013660;28;20481;-79
2022/08/25 11:29:29;;;;;;;11.43;6.50;;;31.90;96.00;;;;;;5013842;28;20451;-79
2022/08/25 11:31:59;;;;;;;7.70;6.75;;;31.70;95.80;;;;;;5013046;28;20484;-79
2022/08/25 11:34:30;;;;;;;7.80;6.93;;;31.70;95.80;;;;;;5013544;28;20266;-79
2022/08/25 11:37:06;;;;;;;7.80;6.73;;;31.50;95.80;;;;;;5013587;28;20455;-79
2022/08/25 11:39:48;;;;;;;9.70;6.60;;;31.50;96.40;;;;;;5013338;28;20454;-81
2022/08/25 11:42:26;;;;;;;10.17;7.47;;;31.80;95.70;;;;;;5013171;28;20466;-81
2022/08/25 11:45:03;;;;;;;8.00;7.20;;;31.70;95.60;;;;;;5013270;28;20861;-79
2022/08/25 11:47:46;;;;;;;8.97;6.70;;;31.40;96.00;;;;;;5013569;28;20441;-79
2022/08/25 11:50:31;;;;;;;11.00;7.17;;;31.20;96.30;;;;;;5013333;28;20930;-79
2022/08/25 11:53:16;;;;;;;7.03;6.33;;;31.00;96.60;;;;;;5013163;28;20473;-79
2022/08/25 11:55:52;;;;;;;7.60;6.80;;;30.80;96.70;;;;;;5012696;28;20536;-79
2022/08/25 11:58:38;;;;;;;12.00;6.97;;;30.70;96.90;;;;;;5013170;28;20497;-79
2022/08/25 12:01:08;;;;;;;8.15;6.68;;;30.80;97.30;;;;;;5013364;28;20446;-79
2022/08/25 12:03:53;;;;;;;7.67;6.57;;;31.20;96.70;;;;;;5012823;28;20258;-79
2022/08/25 12:06:29;;;;;;;8.83;6.30;;;31.60;96.20;;;;;;5013947;28;20446;-79
2022/08/25 12:09:18;;;;;;;10.50;6.20;;;31.20;95.90;;;;;;5012565;28;20466;-79
2022/08/25 12:12:04;;;;;;;15.00;7.13;;;31.00;96.10;;;;;;5013127;28;20815;-79
2022/08/25 12:14:43;;;;;;;9.77;6.67;;;30.90;96.00;;;;;;5013527;28;21008;-79
2022/08/25 12:17:22;;;;;;;9.00;6.70;;;30.80;96.50;;;;;;5012256;28;20529;-79
2022/08/25 12:19:58;;;;;;;11.23;6.70;;;30.90;96.30;;;;;;5013155;28;20302;-81
2022/08/25 12:22:52;;;;;;;9.03;6.97;;;30.70;96.20;;;;;;5012474;28;20469;-79
2022/08/25 12:25:45;;;;;;;8.50;6.63;;;30.60;96.40;;;;;;5013025;28;20934;-79
2022/08/25 12:28:34;;;;;;;6.73;6.07;;;30.50;96.80;;;;;;5012491;28;20875;-80
2022/08/25 12:31:07;;;;;;;12.13;6.40;;;30.90;96.60;;;;;;5012265;28;20489;-79
2022/08/25 12:33:46;;;;;;;12.10;5.80;;;31.50;96.00;;;;;;5011768;28;20640;-79
2022/08/25 12:36:26;;;;;;;6.83;5.90;;;31.80;95.50;;;;;;5013040;28;20571;-80
2022/08/25 12:39:07;;;;;;;5.90;5.30;;;31.60;95.20;;;;;;5013633;28;20455;-79
2022/08/25 12:41:34;;;;;;;6.73;5.93;;;31.20;95.10;;;;;;5016383;28;20624;-79
2022/08/25 12:44:16;;;;;;;8.80;6.23;;;30.90;95.50;;;;;;5016652;28;20720;-79
2022/08/25 12:46:44;;;;;;;8.27;5.80;;;30.80;95.20;;;;;;5015630;28;20450;-79
2022/08/25 12:49:31;;;;;;;6.10;5.43;;;31.20;95.20;;;;;;5015450;28;20727;-79
2022/08/25 12:52:01;;;;;;;7.93;6.13;;;31.70;93.70;;;;;;5015374;28;20491;-79
2022/08/25 12:54:46;;;;;;;6.43;5.82;;;31.90;93.60;;;;;;5015171;28;20450;-79
2022/08/25 12:57:36;;;;;;;9.60;6.10;;;32.10;93.00;;;;;;5015438;28;20326;-79
2022/08/25 13:00:15;;;;;;;7.50;5.43;;;32.00;93.40;;;;;;5015555;28;20458;-79
2022/08/25 13:03:13;;;;;;;6.73;5.80;;;32.10;93.80;;;;;;5014864;28;20549;-79
2022/08/25 13:06:12;;;;;;;8.27;5.60;;;32.80;93.30;;;;;;5014854;28;20525;-80
2022/08/25 13:09:20;;;;;;;6.50;5.40;;;33.10;92.20;;;;;;5015430;28;20512;-80
2022/08/25 13:11:53;;;;;;;8.20;6.03;;;32.80;92.30;;;;;;5015177;28;20879;-80
2022/08/25 13:14:26;;;;;;;9.38;5.53;;;32.60;92.70;;;;;;5015958;28;20505;-80